createdAt,value
2023-03-22T00:02:36.000Z,99279.39
2023-03-22T00:07:35.000Z,99274.79
2023-03-22T00:12:35.000Z,99276.68
2023-03-22T00:17:35.000Z,99274.94
2023-03-22T00:22:35.000Z,99278.58
2023-03-22T00:27:36.000Z,99280.58
2023-03-22T00:32:36.000Z,99281.82
2023-03-22T00:37:35.000Z,99285.66
2023-03-22T00:42:35.000Z,99285.66
2023-03-22T00:47:35.000Z,99289.76
2023-03-22T00:52:36.000Z,99303.47
2023-03-22T00:57:35.000Z,99313.5
2023-03-22T01:02:35.000Z,99321.38
2023-03-22T01:07:36.000Z,99323.69
2023-03-22T01:12:35.000Z,99325.47
2023-03-22T01:17:36.000Z,99333.79
2023-03-22T01:22:36.000Z,99336.39
2023-03-22T01:27:36.000Z,99341.61
2023-03-22T01:32:35.000Z,99346.13
2023-03-22T01:37:36.000Z,99354.16
2023-03-22T01:42:35.000Z,99366.57
2023-03-22T01:47:36.000Z,99374.92
2023-03-22T01:52:35.000Z,99383.05
2023-03-22T01:57:35.000Z,99383.05
2023-03-22T02:02:36.000Z,99379.62
2023-03-22T02:07:36.000Z,99391.61
2023-03-22T02:12:36.000Z,99391.41
2023-03-22T02:17:35.000Z,99392.49
2023-03-22T02:22:35.000Z,99398.88
2023-03-22T02:27:36.000Z,99405.45
2023-03-22T02:32:35.000Z,99407.88
2023-03-22T02:37:36.000Z,99416.13
2023-03-22T02:42:35.000Z,99416.97
2023-03-22T02:47:35.000Z,99421.01
2023-03-22T02:52:36.000Z,99425.19
2023-03-22T02:57:35.000Z,99425.4
2023-03-22T03:02:35.000Z,99425.4
2023-03-22T03:07:36.000Z,99432.57
2023-03-22T03:12:35.000Z,99439.71
2023-03-22T03:17:35.000Z,99446.89
2023-03-22T03:22:35.000Z,99452.87
2023-03-22T03:27:36.000Z,99459.53
2023-03-22T03:32:35.000Z,99462.92
2023-03-22T03:37:36.000Z,99466.62
2023-03-22T03:42:35.000Z,99473.64
2023-03-22T03:47:36.000Z,99477.68
2023-03-22T03:52:36.000Z,99484.47
2023-03-22T03:57:35.000Z,99492.82
2023-03-22T04:02:36.000Z,99498.55
2023-03-22T04:07:35.000Z,99503.33
2023-03-22T04:12:36.000Z,99503.33
2023-03-22T04:17:35.000Z,99506.43
2023-03-22T04:22:35.000Z,99513.49
2023-03-22T04:27:36.000Z,99518.78
2023-03-22T04:32:36.000Z,99533.46
2023-03-22T04:37:36.000Z,99543.14
2023-03-22T04:42:36.000Z,99551.09
2023-03-22T04:47:36.000Z,99562.29
2023-03-22T04:52:36.000Z,99569.94
2023-03-22T04:57:35.000Z,99582.97
2023-03-22T05:02:39.000Z,99587.61
2023-03-22T05:07:35.000Z,99590.29
2023-03-22T05:12:36.000Z,99589.92
2023-03-22T05:17:36.000Z,99595.87
2023-03-22T05:22:36.000Z,99601.78
2023-03-22T05:27:36.000Z,99601.78
2023-03-22T05:32:36.000Z,99606.47
2023-03-22T05:37:35.000Z,99611.27
2023-03-22T05:42:35.000Z,99622.21
2023-03-22T05:47:35.000Z,99627.33
2023-03-22T05:52:35.000Z,99637.32
2023-03-22T05:57:36.000Z,99647.62
2023-03-22T06:02:36.000Z,99655.22
2023-03-22T06:07:36.000Z,99663.79
2023-03-22T06:12:39.000Z,99675.53
2023-03-22T06:17:36.000Z,99678.5
2023-03-22T06:22:36.000Z,99680.82
2023-03-22T06:27:35.000Z,99682.66
2023-03-22T06:32:36.000Z,99688.33
2023-03-22T06:37:36.000Z,99688.55
2023-03-22T06:42:36.000Z,99688.55
2023-03-22T06:47:35.000Z,99689.81
2023-03-22T06:52:35.000Z,99692.78
2023-03-22T06:57:36.000Z,99691.57
2023-03-22T07:02:36.000Z,99692.4
2023-03-22T07:07:35.000Z,99688.24
2023-03-22T07:12:36.000Z,99687.11
2023-03-22T07:17:35.000Z,99686
2023-03-22T07:22:36.000Z,99694.25
2023-03-22T07:27:36.000Z,99703.61
2023-03-22T07:32:36.000Z,99719.49
2023-03-22T07:37:36.000Z,99724.2
2023-03-22T07:42:36.000Z,99735.47
2023-03-22T07:47:51.000Z,99738.95
2023-03-22T07:52:36.000Z,99738.95
2023-03-22T07:57:35.000Z,99736.49
2023-03-22T08:02:36.000Z,99739.02
2023-03-22T08:07:36.000Z,99740.03
2023-03-22T08:12:35.000Z,99728.08
2023-03-22T08:17:36.000Z,99725.91
2023-03-22T08:22:36.000Z,99732.94
2023-03-22T08:27:36.000Z,99730.3
2023-03-22T08:32:36.000Z,99732.64
2023-03-22T08:37:35.000Z,99741.07
2023-03-22T08:42:36.000Z,99741.72
2023-03-22T08:47:42.000Z,99738.9
2023-03-22T08:52:36.000Z,99732.84
2023-03-22T08:57:35.000Z,99727.25
2023-03-22T09:02:36.000Z,99727.25
2023-03-22T09:07:35.000Z,99714.51
2023-03-22T09:12:35.000Z,99717.02
2023-03-22T09:17:36.000Z,99721.45
2023-03-22T09:22:36.000Z,99725.04
2023-03-22T09:27:35.000Z,99725.27
2023-03-22T09:32:36.000Z,99730.01
2023-03-22T09:37:35.000Z,99735.83
2023-03-22T09:42:35.000Z,99743.75
2023-03-22T09:47:45.000Z,99741.65
2023-03-22T09:52:36.000Z,99745.45
2023-03-22T09:57:35.000Z,99748
2023-03-22T10:02:36.000Z,99749.97
2023-03-22T10:07:36.000Z,99747.5
2023-03-22T10:12:36.000Z,99743.99
2023-03-22T10:17:36.000Z,99743.99
2023-03-22T10:22:35.000Z,99743.31
2023-03-22T10:27:35.000Z,99742.55
2023-03-22T10:32:36.000Z,99744.48
2023-03-22T10:37:36.000Z,99746.35
2023-03-22T10:42:35.000Z,99740.87
2023-03-22T10:47:36.000Z,99739.63
2023-03-22T10:52:36.000Z,99740.1
2023-03-22T10:57:36.000Z,99741.5
2023-03-22T11:02:35.000Z,99741.51
2023-03-22T11:07:35.000Z,99731.5
2023-03-22T11:12:35.000Z,99738.02
2023-03-22T11:17:35.000Z,99744.47
2023-03-22T11:22:36.000Z,99744.61
2023-03-22T11:27:37.000Z,99744.61
2023-03-22T11:32:36.000Z,99748.86
2023-03-22T11:37:36.000Z,99748.2
2023-03-22T11:42:36.000Z,99746.13
2023-03-22T11:47:36.000Z,99737.81
2023-03-22T11:52:36.000Z,99734.08
2023-03-22T11:57:36.000Z,99731.48
2023-03-22T12:02:37.000Z,99729.12
2023-03-22T12:07:35.000Z,99733.94
2023-03-22T12:12:36.000Z,99731.31
2023-03-22T12:17:35.000Z,99724.93
2023-03-22T12:22:36.000Z,99727.96
2023-03-22T12:27:35.000Z,99727.36
2023-03-22T12:32:36.000Z,99730.3
2023-03-22T12:37:36.000Z,99730.3
2023-03-22T12:42:36.000Z,99726.22
2023-03-22T12:47:35.000Z,99725.11
2023-03-22T12:52:42.000Z,99728.71
2023-03-22T12:57:35.000Z,99732.46
2023-03-22T13:02:37.000Z,99726
2023-03-22T13:07:35.000Z,99723.25
2023-03-22T13:12:36.000Z,99712.2
2023-03-22T13:17:36.000Z,99716.11
2023-03-22T13:22:35.000Z,99718.93
2023-03-22T13:27:36.000Z,99718.56
2023-03-22T13:32:37.000Z,99718.52
2023-03-22T13:37:36.000Z,99718.5
2023-03-22T13:42:35.000Z,99713.84
2023-03-22T13:47:35.000Z,99713.25
2023-03-22T13:52:35.000Z,99713.25
2023-03-22T13:57:36.000Z,99707.77
2023-03-22T14:02:36.000Z,99708.48
2023-03-22T14:07:36.000Z,99704.22
2023-03-22T14:12:35.000Z,99706.57
2023-03-22T14:17:36.000Z,99702.43
2023-03-22T14:47:35.000Z,99701.24
2023-03-22T14:52:36.000Z,99700.09
2023-03-22T14:57:46.000Z,99699.11
2023-03-22T15:02:36.000Z,99699.11
2023-03-22T15:07:36.000Z,99700.67
2023-03-22T15:12:36.000Z,99703.16
2023-03-22T15:17:35.000Z,99704.5
2023-03-22T15:22:35.000Z,99701.59
2023-03-22T15:27:36.000Z,99696.34
2023-03-22T15:32:35.000Z,99696.66
2023-03-22T15:37:35.000Z,99688.61
2023-03-22T15:42:35.000Z,99685.85
2023-03-22T15:47:36.000Z,99686.85
2023-03-22T15:52:35.000Z,99688.27
2023-03-22T15:57:35.000Z,99693.36
2023-03-22T16:02:35.000Z,99695.6
2023-03-22T16:07:35.000Z,99701.86
2023-03-22T16:12:35.000Z,99706.37
2023-03-22T16:17:35.000Z,99706.37
2023-03-22T16:22:35.000Z,99708.37
2023-03-22T16:27:35.000Z,99705.9
2023-03-22T16:32:36.000Z,99707.58
2023-03-22T16:37:35.000Z,99714.61
2023-03-22T16:42:36.000Z,99718.25
2023-03-22T16:47:35.000Z,99716.36
2023-03-22T16:52:36.000Z,99720.23
2023-03-22T16:57:36.000Z,99720.1
2023-03-22T17:02:36.000Z,99720.5
2023-03-22T17:07:35.000Z,99722.08
2023-03-22T17:12:36.000Z,99719.44
2023-03-22T17:17:36.000Z,99721.77
2023-03-22T17:22:37.000Z,99719.58
2023-03-22T17:27:36.000Z,99719.23
2023-03-22T17:33:09.000Z,99721.01
2023-03-22T17:37:35.000Z,99721.01
2023-03-22T17:42:36.000Z,99710.97
2023-03-22T17:47:40.000Z,99720.62
2023-03-22T17:52:35.000Z,99719.24
2023-03-22T17:58:34.000Z,99720.94
2023-03-22T18:02:37.000Z,99726.14
2023-03-22T18:07:36.000Z,99728.47
2023-03-22T18:12:35.000Z,99725.56
2023-03-22T18:17:36.000Z,99722.73
2023-03-22T18:22:36.000Z,99719.41
2023-03-22T18:27:37.000Z,99717.03
2023-03-22T18:32:36.000Z,99716.56
2023-03-22T18:37:36.000Z,99715.59
2023-03-22T18:42:55.000Z,99712.89
2023-03-22T18:47:36.000Z,99712.89
2023-03-22T18:52:42.000Z,99707.29
2023-03-22T18:57:42.000Z,99710.99
2023-03-22T19:02:50.000Z,99718.25
2023-03-22T19:12:36.000Z,99717.98
2023-03-22T19:17:36.000Z,99708.89
2023-03-22T19:22:36.000Z,99708.8
2023-03-22T19:27:35.000Z,99701.28
2023-03-22T19:32:35.000Z,99701.85
2023-03-22T19:37:35.000Z,99697.79
2023-03-22T19:42:36.000Z,99700.54
2023-03-22T19:47:35.000Z,99700.54
2023-03-22T19:52:36.000Z,99697.78
2023-03-22T19:57:35.000Z,99694.25
2023-03-22T20:02:35.000Z,99695.14
2023-03-22T20:07:36.000Z,99695.23
2023-03-22T20:12:35.000Z,99693.42
2023-03-22T20:17:36.000Z,99693.03
2023-03-22T20:22:36.000Z,99696.09
2023-03-22T20:27:35.000Z,99692.07
2023-03-22T20:32:35.000Z,99693.43
2023-03-22T20:37:35.000Z,99698.29
2023-03-22T20:42:36.000Z,99693.77
2023-03-22T20:47:35.000Z,99686.5
2023-03-22T20:52:36.000Z,99691.85
2023-03-22T20:57:36.000Z,99691.95
2023-03-22T21:02:35.000Z,99691.95
2023-03-22T21:07:35.000Z,99693.25
2023-03-22T21:12:54.000Z,99688.47
2023-03-22T21:17:36.000Z,99685.49
2023-03-22T21:22:36.000Z,99679.33
2023-03-22T21:27:35.000Z,99681.39
2023-03-22T21:32:35.000Z,99683.3
2023-03-22T21:37:35.000Z,99679.72
2023-03-22T21:42:36.000Z,99678.1
2023-03-22T21:47:35.000Z,99678.12
2023-03-22T21:52:36.000Z,99680.29
2023-03-22T21:57:36.000Z,99672.65
2023-03-22T22:02:36.000Z,99673.08
2023-03-22T22:07:36.000Z,99673.14
2023-03-22T22:12:36.000Z,99673.14
2023-03-22T22:17:36.000Z,99671.67
2023-03-22T22:22:36.000Z,99672.69
2023-03-22T22:27:35.000Z,99672.96
2023-03-22T22:32:35.000Z,99672.19
2023-03-22T22:37:35.000Z,99672.11
2023-03-22T22:42:36.000Z,99670.2
2023-03-22T22:47:35.000Z,99669.04
2023-03-22T22:52:35.000Z,99671.78
2023-03-22T22:57:36.000Z,99676.7
2023-03-22T23:02:36.000Z,99679.09
2023-03-22T23:07:35.000Z,99679.89
2023-03-22T23:12:36.000Z,99683.23
2023-03-22T23:17:36.000Z,99685.42
2023-03-22T23:22:36.000Z,99685.42
2023-03-22T23:27:35.000Z,99688.34
2023-03-22T23:32:36.000Z,99683.72
2023-03-22T23:37:35.000Z,99681.69
2023-03-22T23:42:35.000Z,99671.05
2023-03-22T23:47:37.000Z,99667.49
2023-03-22T23:52:36.000Z,99663.75
2023-03-22T23:57:35.000Z,99662.69
